createdAt,value
2022-08-03T00:01:31.252Z,44.70
2022-08-03T00:04:34.083Z,48.50
2022-08-03T00:07:37.142Z,43.90
2022-08-03T00:10:39.350Z,46.40
2022-08-03T00:13:41.110Z,39.60
2022-08-03T00:16:43.195Z,38.00
2022-08-03T00:19:45.035Z,42.50
2022-08-03T00:22:46.705Z,45.10
2022-08-03T00:25:48.481Z,50.80
2022-08-03T00:28:50.700Z,50.10
2022-08-03T00:31:59.229Z,118.80
2022-08-03T00:35:05.699Z,49.90
2022-08-03T00:38:11.032Z,44.80
2022-08-03T00:41:12.930Z,46.50
2022-08-03T00:44:17.533Z,48.50
2022-08-03T00:47:19.322Z,40.30
2022-08-03T00:50:23.234Z,49.40
2022-08-03T00:53:25.831Z,45.50
2022-08-03T00:56:27.549Z,48.90
2022-08-03T00:59:30.133Z,43.20
2022-08-03T01:02:32.379Z,44.00
2022-08-03T01:05:43.241Z,46.30
2022-08-03T01:09:16.506Z,55.50
2022-08-03T01:13:01.018Z,56.00
2022-08-03T01:16:36.726Z,156.20
2022-08-03T01:20:07.460Z,223.30
2022-08-03T01:23:28.853Z,153.70
2022-08-03T01:26:53.076Z,137.10
2022-08-03T01:30:25.022Z,53.30
2022-08-03T01:33:36.686Z,60.70
2022-08-03T01:36:43.513Z,65.00
2022-08-03T01:39:45.590Z,66.10
2022-08-03T01:42:48.113Z,67.60
2022-08-03T01:45:50.370Z,66.90
2022-08-03T01:48:52.895Z,60.30
2022-08-03T01:52:03.976Z,65.70
2022-08-03T01:55:08.301Z,59.50
2022-08-03T01:58:10.516Z,55.50
2022-08-03T02:01:14.268Z,55.50
2022-08-03T02:04:18.453Z,56.10
2022-08-03T02:07:20.568Z,52.80
2022-08-03T02:10:34.542Z,51.00
2022-08-03T02:13:37.878Z,52.60
2022-08-03T02:16:39.817Z,51.80
2022-08-03T02:19:43.707Z,48.70
2022-08-03T02:22:46.835Z,88.20
2022-08-03T02:25:53.426Z,70.60
2022-08-03T02:28:57.186Z,80.30
2022-08-03T02:32:00.667Z,52.20
2022-08-03T02:35:04.435Z,52.80
2022-08-03T02:38:08.478Z,65.40
2022-08-03T02:41:16.213Z,45.30
2022-08-03T02:44:22.191Z,129.80
2022-08-03T02:47:27.326Z,204.80
2022-08-03T02:50:30.689Z,58.00
2022-08-03T02:53:34.038Z,59.10
2022-08-03T02:56:37.305Z,111.20
2022-08-03T02:59:39.547Z,169.70
2022-08-03T03:02:44.459Z,216.70
2022-08-03T03:05:55.306Z,217.40
2022-08-03T03:09:00.041Z,203.60
2022-08-03T03:12:03.201Z,154.70
2022-08-03T03:15:06.625Z,100.50
2022-08-03T03:18:10.229Z,92.30
2022-08-03T03:21:13.487Z,114.20
2022-08-03T03:24:16.666Z,102.20
2022-08-03T03:27:18.681Z,108.90
2022-08-03T03:30:20.458Z,82.40
2022-08-03T03:33:22.458Z,77.20
2022-08-03T03:36:24.200Z,80.40
2022-08-03T03:39:25.974Z,56.20
2022-08-03T03:42:27.813Z,78.50
2022-08-03T03:45:31.208Z,93.20
2022-08-03T03:48:33.538Z,92.10
2022-08-03T03:51:35.238Z,84.90
2022-08-03T03:54:41.500Z,90.10
2022-08-03T03:57:43.315Z,110.40
2022-08-03T04:00:45.504Z,95.90
2022-08-03T04:03:47.387Z,76.60
2022-08-03T04:07:08.098Z,90.60
2022-08-03T04:10:37.664Z,69.80
2022-08-03T04:14:04.336Z,72.00
2022-08-03T04:17:07.640Z,135.40
2022-08-03T04:20:10.949Z,75.60
2022-08-03T04:23:15.466Z,180.20
2022-08-03T04:26:21.309Z,111.50
2022-08-03T04:29:25.386Z,77.50
2022-08-03T04:32:28.888Z,72.00
2022-08-03T04:36:01.982Z,61.40
2022-08-03T04:39:03.029Z,54.70
2022-08-03T04:42:16.997Z,51.10
2022-08-03T04:45:19.570Z,55.90
2022-08-03T04:48:21.591Z,58.20
2022-08-03T04:51:23.629Z,56.60
2022-08-03T04:54:25.293Z,54.00
2022-08-03T04:57:27.158Z,50.80
2022-08-03T05:00:29.484Z,52.50
2022-08-03T05:03:32.043Z,63.30
2022-08-03T05:06:34.553Z,66.90
2022-08-03T05:09:50.620Z,62.60
2022-08-03T05:12:54.891Z,61.80
2022-08-03T05:15:56.790Z,57.80
2022-08-03T05:18:58.484Z,57.80
2022-08-03T05:22:00.322Z,58.80
2022-08-03T05:25:02.663Z,55.70
2022-08-03T05:28:04.715Z,57.90
2022-08-03T05:31:06.737Z,59.50
2022-08-03T05:34:09.029Z,53.20
2022-08-03T05:37:10.994Z,51.50
2022-08-03T05:40:13.285Z,52.00
2022-08-03T05:43:15.037Z,55.30
2022-08-03T05:46:16.802Z,54.60
2022-08-03T05:49:19.496Z,51.80
2022-08-03T05:52:21.465Z,49.80
2022-08-03T05:55:23.726Z,44.10
2022-08-03T05:58:25.654Z,44.30
2022-08-03T06:01:33.416Z,41.50
2022-08-03T06:04:35.262Z,39.90
2022-08-03T06:07:37.824Z,37.20
2022-08-03T06:10:39.658Z,37.70
2022-08-03T06:13:41.689Z,38.40
2022-08-03T06:16:43.519Z,39.40
2022-08-03T06:19:45.200Z,38.40
2022-08-03T06:22:50.692Z,38.70
2022-08-03T06:25:53.181Z,39.10
2022-08-03T06:28:55.519Z,37.00
2022-08-03T06:31:57.552Z,38.40
2022-08-03T06:35:00.133Z,36.10
2022-08-03T06:38:02.984Z,34.00
2022-08-03T06:41:05.409Z,35.40
2022-08-03T06:44:07.727Z,35.70
2022-08-03T06:47:10.569Z,37.90
2022-08-03T06:50:16.233Z,36.10
2022-08-03T06:53:21.417Z,34.30
2022-08-03T06:56:23.612Z,29.60
2022-08-03T07:00:09.298Z,30.80
2022-08-03T07:02:48.256Z,28.10
2022-08-03T07:05:54.442Z,30.60
2022-08-03T07:08:59.528Z,25.10
2022-08-03T07:12:02.481Z,29.10
2022-08-03T07:15:05.287Z,26.50
2022-08-03T07:18:07.181Z,27.80
2022-08-03T07:21:11.038Z,29.40
2022-08-03T07:24:12.771Z,30.10
2022-08-03T07:27:16.445Z,27.50
2022-08-03T07:30:18.696Z,26.60
2022-08-03T07:33:20.901Z,26.50
2022-08-03T07:36:23.205Z,25.30
2022-08-03T07:39:24.957Z,25.90
2022-08-03T07:42:28.208Z,25.00
2022-08-03T07:45:31.387Z,25.00
2022-08-03T07:48:33.245Z,24.90
2022-08-03T07:51:35.185Z,23.60
2022-08-03T07:54:37.506Z,24.60
2022-08-03T07:57:39.529Z,23.60
2022-08-03T08:00:41.775Z,25.10
2022-08-03T08:03:52.718Z,22.40
2022-08-03T08:06:55.035Z,25.10
2022-08-03T08:09:56.801Z,25.00
2022-08-03T08:12:59.535Z,23.80
2022-08-03T08:16:01.427Z,24.80
2022-08-03T08:19:03.317Z,26.70
2022-08-03T08:22:05.931Z,26.30
2022-08-03T08:25:08.502Z,25.40
2022-08-03T08:28:31.677Z,25.10
2022-08-03T08:31:32.166Z,24.20
2022-08-03T08:34:33.883Z,25.60
2022-08-03T08:37:36.395Z,23.30
2022-08-03T08:40:38.172Z,23.30
2022-08-03T08:43:40.372Z,23.30
2022-08-03T08:46:42.758Z,23.20
2022-08-03T08:50:03.882Z,20.50
2022-08-03T08:53:17.428Z,20.60
2022-08-03T08:56:25.562Z,23.60
2022-08-03T08:59:27.942Z,22.50
2022-08-03T09:02:50.118Z,24.10
2022-08-03T09:05:56.186Z,23.80
2022-08-03T09:08:58.760Z,23.90
2022-08-03T09:12:20.882Z,22.90
2022-08-03T09:15:31.383Z,22.80
2022-08-03T09:18:33.535Z,22.10
2022-08-03T09:21:35.567Z,20.20
2022-08-03T09:24:41.619Z,20.40
2022-08-03T09:27:45.447Z,20.10
2022-08-03T09:30:58.983Z,19.80
2022-08-03T09:34:05.187Z,21.40
2022-08-03T09:37:15.109Z,19.70
2022-08-03T09:40:34.458Z,22.00
2022-08-03T09:43:46.337Z,22.80
2022-08-03T09:46:58.128Z,22.00
2022-08-03T09:50:02.373Z,21.50
2022-08-03T09:53:04.257Z,22.20
2022-08-03T09:56:35.118Z,20.30
2022-08-03T09:59:29.935Z,20.30
2022-08-03T10:02:31.802Z,21.80
2022-08-03T10:05:33.811Z,27.60
2022-08-03T10:08:35.775Z,19.90
2022-08-03T10:11:42.068Z,20.20
2022-08-03T10:14:45.849Z,22.10
2022-08-03T10:17:47.666Z,19.80
2022-08-03T10:20:53.205Z,18.10
2022-08-03T10:23:56.078Z,20.20
2022-08-03T10:27:03.787Z,17.50
2022-08-03T10:30:11.275Z,20.90
2022-08-03T10:33:50.668Z,17.10
2022-08-03T10:36:44.042Z,15.70
2022-08-03T10:39:54.872Z,16.80
2022-08-03T10:43:02.424Z,15.50
2022-08-03T10:46:07.437Z,15.40
2022-08-03T10:49:10.324Z,18.40
2022-08-03T10:52:33.680Z,15.40
2022-08-03T10:55:58.301Z,15.10
2022-08-03T10:59:00.439Z,19.20
2022-08-03T11:02:08.511Z,18.20
2022-08-03T11:05:30.473Z,19.40
2022-08-03T11:08:35.353Z,16.60
2022-08-03T11:11:38.316Z,18.00
2022-08-03T11:14:48.330Z,17.30
2022-08-03T11:18:11.183Z,16.00
2022-08-03T11:21:13.400Z,14.10
2022-08-03T11:24:37.159Z,15.60
2022-08-03T11:27:38.908Z,16.90
2022-08-03T11:30:41.324Z,15.80
2022-08-03T11:34:04.634Z,15.80
2022-08-03T11:37:21.524Z,18.00
2022-08-03T11:40:46.495Z,18.30
2022-08-03T11:43:48.471Z,19.00
2022-08-03T11:46:50.498Z,15.90
2022-08-03T11:49:55.211Z,16.90
2022-08-03T11:52:57.147Z,15.70
2022-08-03T11:56:00.405Z,16.10
2022-08-03T11:59:20.269Z,15.30
2022-08-03T12:02:23.352Z,19.40
2022-08-03T12:05:35.243Z,17.10
2022-08-03T12:08:37.318Z,18.40
2022-08-03T12:11:39.422Z,18.90
2022-08-03T12:14:58.576Z,15.50
2022-08-03T12:18:03.256Z,14.60
2022-08-03T12:21:09.878Z,14.70
2022-08-03T12:24:12.392Z,16.00
2022-08-03T12:27:25.117Z,15.00
2022-08-03T12:30:26.875Z,14.80
2022-08-03T12:33:28.783Z,14.10
2022-08-03T12:36:33.345Z,13.00
2022-08-03T12:39:35.306Z,12.50
2022-08-03T12:42:39.113Z,12.40
2022-08-03T12:45:41.310Z,9.80
2022-08-03T12:49:00.314Z,8.90
2022-08-03T12:52:07.278Z,17.10
2022-08-03T12:55:20.532Z,12.80
2022-08-03T12:58:34.551Z,12.20
2022-08-03T13:01:37.430Z,10.20
2022-08-03T13:04:39.238Z,9.20
2022-08-03T13:07:46.082Z,8.60
2022-08-03T13:10:48.426Z,10.90
2022-08-03T13:13:51.904Z,12.90
2022-08-03T13:16:53.716Z,8.80
2022-08-03T13:19:56.342Z,9.20
2022-08-03T13:23:00.938Z,9.10
2022-08-03T13:26:02.947Z,9.90
2022-08-03T13:29:04.695Z,9.50
2022-08-03T13:32:07.825Z,8.50
2022-08-03T13:35:10.371Z,9.50
2022-08-03T13:38:12.440Z,12.60
2022-08-03T13:41:17.135Z,10.10
2022-08-03T13:44:29.802Z,20.50
2022-08-03T13:47:32.109Z,9.40
2022-08-03T13:50:34.001Z,9.60
2022-08-03T13:53:36.235Z,12.70
2022-08-03T13:56:38.085Z,10.60
2022-08-03T13:59:40.009Z,10.90
2022-08-03T14:02:42.444Z,12.10
2022-08-03T14:05:44.363Z,7.90
2022-08-03T14:08:46.244Z,16.00
2022-08-03T14:12:06.882Z,20.20
2022-08-03T14:15:10.181Z,17.00
2022-08-03T14:18:15.923Z,86.60
2022-08-03T14:21:29.797Z,13.60
2022-08-03T14:24:31.966Z,7.10
2022-08-03T14:27:33.711Z,10.40
2022-08-03T14:30:35.946Z,8.30
2022-08-03T14:33:37.701Z,9.90
2022-08-03T14:36:39.674Z,11.60
2022-08-03T14:43:03.161Z,6.80
2022-08-03T14:46:07.079Z,10.40
2022-08-03T14:50:33.121Z,9.60
2022-08-03T14:52:31.440Z,10.90
2022-08-03T14:55:38.388Z,10.00
2022-08-03T14:58:41.355Z,8.60
2022-08-03T15:02:02.856Z,8.40
2022-08-03T15:05:05.325Z,9.80
2022-08-03T15:08:09.328Z,10.50
2022-08-03T15:11:11.606Z,9.50
2022-08-03T15:14:14.734Z,10.30
2022-08-03T15:17:16.644Z,15.90
2022-08-03T15:20:28.957Z,14.80
2022-08-03T15:23:38.400Z,14.90
2022-08-03T15:26:41.841Z,17.50
2022-08-03T15:30:07.213Z,12.70
2022-08-03T15:33:06.641Z,12.00
2022-08-03T15:36:08.461Z,17.90
2022-08-03T15:39:10.315Z,13.00
2022-08-03T15:42:12.248Z,12.90
2022-08-03T15:45:14.057Z,14.30
2022-08-03T15:48:20.519Z,17.50
2022-08-03T15:51:29.869Z,18.30
2022-08-03T15:54:31.830Z,16.40
2022-08-03T15:57:34.340Z,20.30
2022-08-03T16:00:57.481Z,17.60
2022-08-03T16:03:59.228Z,28.10
2022-08-03T16:07:01.041Z,34.80
2022-08-03T16:10:03.117Z,24.00
2022-08-03T16:13:04.854Z,18.70
2022-08-03T16:16:06.761Z,17.40
2022-08-03T16:19:08.528Z,16.20
2022-08-03T16:22:10.309Z,18.70
2022-08-03T16:25:16.709Z,19.50
2022-08-03T16:28:19.211Z,17.20
2022-08-03T16:31:22.437Z,17.90
2022-08-03T16:34:24.251Z,17.70
2022-08-03T16:37:51.833Z,19.50
2022-08-03T16:40:51.984Z,18.30
2022-08-03T16:43:54.416Z,18.70
2022-08-03T16:46:56.511Z,18.30
2022-08-03T16:50:00.431Z,18.40
2022-08-03T16:53:09.248Z,18.00
2022-08-03T16:56:11.499Z,16.10
2022-08-03T16:59:13.378Z,17.30
2022-08-03T17:02:26.212Z,16.90
2022-08-03T17:05:47.974Z,20.70
2022-08-03T17:08:55.312Z,18.80
2022-08-03T17:11:57.509Z,20.40
2022-08-03T17:14:59.352Z,19.00
2022-08-03T17:18:08.654Z,15.40
2022-08-03T17:21:11.399Z,18.40
2022-08-03T17:24:34.955Z,16.50
2022-08-03T17:28:49.608Z,21.30
2022-08-03T17:31:23.507Z,20.70
2022-08-03T17:34:33.299Z,18.80
2022-08-03T17:37:58.015Z,18.70
2022-08-03T17:40:57.546Z,22.30
2022-08-03T17:44:15.703Z,21.10
2022-08-03T17:47:23.400Z,24.70
2022-08-03T17:50:40.364Z,27.20
2022-08-03T17:53:54.227Z,28.80
2022-08-03T17:57:06.330Z,28.40
2022-08-03T18:00:54.403Z,26.80
2022-08-03T18:04:10.695Z,24.50
2022-08-03T18:07:16.217Z,24.20
2022-08-03T18:10:25.837Z,25.70
2022-08-03T18:13:41.269Z,23.40
2022-08-03T18:16:53.093Z,28.40
2022-08-03T18:23:25.509Z,32.50
2022-08-03T18:26:38.889Z,34.90
2022-08-03T18:29:43.217Z,26.00
2022-08-03T18:33:01.115Z,31.90
2022-08-03T18:36:17.515Z,29.90
2022-08-03T18:39:20.182Z,34.10
2022-08-03T18:42:26.318Z,30.50
2022-08-03T18:45:57.268Z,29.20
2022-08-03T18:48:59.439Z,30.70
2022-08-03T18:52:17.246Z,35.00
2022-08-03T18:55:33.009Z,31.40
2022-08-03T18:59:07.389Z,29.90
2022-08-03T19:02:36.180Z,35.00
2022-08-03T19:06:02.330Z,34.50
2022-08-03T19:09:13.078Z,27.90
2022-08-03T19:12:31.012Z,28.90
2022-08-03T19:15:51.012Z,31.50
2022-08-03T19:18:53.702Z,31.70
2022-08-03T19:21:56.797Z,31.70
2022-08-03T19:25:00.710Z,29.50
2022-08-03T19:28:06.353Z,31.00
2022-08-03T19:31:10.542Z,30.80
2022-08-03T19:34:14.364Z,30.00
2022-08-03T19:37:18.475Z,31.50
2022-08-03T19:40:24.850Z,30.50
2022-08-03T19:43:53.140Z,30.40
2022-08-03T19:47:11.327Z,28.60
2022-08-03T19:50:20.263Z,26.80
2022-08-03T19:53:23.445Z,31.00
2022-08-03T19:56:42.005Z,30.40
2022-08-03T19:59:50.047Z,30.60
2022-08-03T20:02:52.924Z,29.40
2022-08-03T20:05:55.098Z,28.40
2022-08-03T20:08:58.675Z,29.30
2022-08-03T20:12:00.541Z,28.30
2022-08-03T20:15:03.842Z,28.30
2022-08-03T20:18:05.610Z,31.50
2022-08-03T20:21:19.010Z,28.60
2022-08-03T20:24:27.045Z,31.90
2022-08-03T20:27:31.217Z,30.10
2022-08-03T20:30:53.109Z,32.40
2022-08-03T20:33:55.051Z,32.00
2022-08-03T20:36:57.444Z,33.60
2022-08-03T20:40:02.615Z,37.30
2022-08-03T20:43:04.849Z,33.30
2022-08-03T20:46:29.242Z,30.30
2022-08-03T20:49:29.042Z,32.80
2022-08-03T20:52:49.676Z,28.30
2022-08-03T20:56:02.467Z,31.10
2022-08-03T20:59:06.252Z,31.50
2022-08-03T21:02:08.453Z,29.00
2022-08-03T21:05:11.447Z,28.80
2022-08-03T21:08:17.218Z,29.60
2022-08-03T21:11:24.960Z,30.60
2022-08-03T21:13:03.947Z,28.80
2022-08-03T21:14:39.781Z,30.60
2022-08-03T21:17:47.661Z,31.90
2022-08-03T21:20:50.366Z,29.30
2022-08-03T21:23:54.772Z,30.40
2022-08-03T21:26:56.577Z,29.50
2022-08-03T21:30:02.162Z,28.50
2022-08-03T21:33:06.880Z,29.00
2022-08-03T21:36:08.877Z,28.10
2022-08-03T21:39:11.837Z,30.30
2022-08-03T21:42:13.749Z,30.80
2022-08-03T21:45:17.657Z,31.60
2022-08-03T21:48:20.815Z,31.90
2022-08-03T21:51:25.244Z,28.70
2022-08-03T21:54:35.716Z,29.40
2022-08-03T21:57:40.920Z,34.60
2022-08-03T22:00:43.438Z,30.60
2022-08-03T22:03:53.215Z,34.90
2022-08-03T22:06:56.229Z,32.70
2022-08-03T22:10:00.203Z,37.20
2022-08-03T22:13:01.895Z,36.30
2022-08-03T22:16:04.047Z,33.10
2022-08-03T22:19:05.808Z,33.60
2022-08-03T22:22:09.469Z,32.40
2022-08-03T22:25:14.784Z,33.80
2022-08-03T22:28:16.828Z,33.60
2022-08-03T22:31:36.903Z,34.30
2022-08-03T22:34:42.847Z,34.20
2022-08-03T22:37:45.653Z,35.90
2022-08-03T22:40:51.143Z,33.10
2022-08-03T22:43:54.033Z,35.60
2022-08-03T22:46:56.290Z,31.00
2022-08-03T22:50:31.607Z,33.70
2022-08-03T22:53:22.463Z,33.40
2022-08-03T22:56:24.153Z,33.90
2022-08-03T22:59:39.069Z,29.10
2022-08-03T23:02:48.494Z,31.50
2022-08-03T23:06:01.114Z,27.40
2022-08-03T23:09:14.177Z,32.10
2022-08-03T23:12:20.231Z,32.30
2022-08-03T23:15:25.445Z,30.90
2022-08-03T23:18:33.006Z,38.50
2022-08-03T23:21:53.214Z,35.40
2022-08-03T23:25:04.913Z,37.90
2022-08-03T23:28:09.046Z,34.60
2022-08-03T23:31:12.939Z,39.90
2022-08-03T23:34:33.762Z,35.80
2022-08-03T23:38:07.230Z,36.00
2022-08-03T23:40:59.961Z,35.80
2022-08-03T23:44:05.576Z,39.70
2022-08-03T23:47:07.293Z,40.40
2022-08-03T23:50:09.029Z,38.50
2022-08-03T23:53:32.361Z,27.60
2022-08-03T23:57:06.631Z,34.40
